sensor_id;sensor_type;location;lat;lon;timestamp;pressure;altitude;pressure_sealevel;temperature;humidity
9855;BME280;4966;48.112;9.282;2023-04-01T00:01:02;93589.25;;;7.19;100.00
9855;BME280;4966;48.112;9.282;2023-04-01T00:03:28;93580.38;;;7.34;100.00
9855;BME280;4966;48.112;9.282;2023-04-01T00:05:55;93579.69;;;7.37;100.00
9855;BME280;4966;48.112;9.282;2023-04-01T00:08:21;93578.06;;;7.49;99.38
9855;BME280;4966;48.112;9.282;2023-04-01T00:10:47;93572.28;;;7.34;99.54
9855;BME280;4966;48.112;9.282;2023-04-01T00:13:12;93560.75;;;7.37;98.96
9855;BME280;4966;48.112;9.282;2023-04-01T00:15:38;93569.41;;;7.15;100.00
9855;BME280;4966;48.112;9.282;2023-04-01T00:18:03;93574.63;;;7.08;100.00
9855;BME280;4966;48.112;9.282;2023-04-01T00:20:29;93561.91;;;7.36;99.03
9855;BME280;4966;48.112;9.282;2023-04-01T00:22:55;93564.28;;;7.38;98.75
9855;BME280;4966;48.112;9.282;2023-04-01T00:25:21;93558.50;;;7.39;98.92
9855;BME280;4966;48.112;9.282;2023-04-01T00:27:47;93559.69;;;7.54;97.78
9855;BME280;4966;48.112;9.282;2023-04-01T00:30:13;93567.81;;;7.26;99.70
9855;BME280;4966;48.112;9.282;2023-04-01T00:32:38;93560.06;;;7.12;100.00
9855;BME280;4966;48.112;9.282;2023-04-01T00:35:04;93560.00;;;6.96;100.00
9855;BME280;4966;48.112;9.282;2023-04-01T00:37:29;93562.16;;;6.91;100.00
9855;BME280;4966;48.112;9.282;2023-04-01T00:39:56;93566.66;;;6.87;100.00
9855;BME280;4966;48.112;9.282;2023-04-01T00:42:21;93564.88;;;6.91;100.00
9855;BME280;4966;48.112;9.282;2023-04-01T00:44:54;93569.22;;;7.08;99.94
9855;BME280;4966;48.112;9.282;2023-04-01T00:47:21;93564.75;;;6.99;100.00
9855;BME280;4966;48.112;9.282;2023-04-01T00:49:50;93571.66;;;7.13;99.32
9855;BME280;4966;48.112;9.282;2023-04-01T00:52:19;93564.50;;;7.05;100.00
9855;BME280;4966;48.112;9.282;2023-04-01T00:54:47;93561.56;;;7.10;100.00
9855;BME280;4966;48.112;9.282;2023-04-01T00:57:23;93572.66;;;6.92;100.00
9855;BME280;4966;48.112;9.282;2023-04-01T00:59:51;93570.56;;;7.14;99.44
9855;BME280;4966;48.112;9.282;2023-04-01T01:02:18;93565.56;;;6.88;100.00
9855;BME280;4966;48.112;9.282;2023-04-01T01:04:45;93576.47;;;6.91;100.00
9855;BME280;4966;48.112;9.282;2023-04-01T01:09:56;93564.78;;;7.15;99.79
9855;BME280;4966;48.112;9.282;2023-04-01T01:32:10;93564.88;;;6.91;99.53
9855;BME280;4966;48.112;9.282;2023-04-01T01:34:55;93568.47;;;6.95;98.99
9855;BME280;4966;48.112;9.282;2023-04-01T01:37:25;93564.44;;;6.76;100.00
9855;BME280;4966;48.112;9.282;2023-04-01T01:39:54;93572.44;;;6.85;99.82
9855;BME280;4966;48.112;9.282;2023-04-01T01:42:22;93555.47;;;6.60;100.00
9855;BME280;4966;48.112;9.282;2023-04-01T01:44:50;93567.84;;;6.73;99.61
9855;BME280;4966;48.112;9.282;2023-04-01T01:47:19;93560.19;;;6.51;100.00
9855;BME280;4966;48.112;9.282;2023-04-01T01:49:46;93542.94;;;6.80;98.96
9855;BME280;4966;48.112;9.282;2023-04-01T01:52:12;93548.72;;;6.66;98.79
9855;BME280;4966;48.112;9.282;2023-04-01T01:54:52;93547.91;;;6.53;99.20
9855;BME280;4966;48.112;9.282;2023-04-01T01:57:33;93545.66;;;6.80;97.57
9855;BME280;4966;48.112;9.282;2023-04-01T02:00:06;93539.63;;;6.87;97.65
9855;BME280;4966;48.112;9.282;2023-04-01T02:02:40;93539.78;;;6.78;97.37
9855;BME280;4966;48.112;9.282;2023-04-01T02:05:09;93549.44;;;6.91;96.73
9855;BME280;4966;48.112;9.282;2023-04-01T02:07:37;93538.00;;;6.70;97.27
9855;BME280;4966;48.112;9.282;2023-04-01T02:10:05;93545.00;;;6.99;96.16
9855;BME280;4966;48.112;9.282;2023-04-01T02:12:31;93535.09;;;6.50;97.73
9855;BME280;4966;48.112;9.282;2023-04-01T02:15:06;93541.88;;;6.44;97.95
9855;BME280;4966;48.112;9.282;2023-04-01T02:17:34;93531.03;;;6.69;96.77
9855;BME280;4966;48.112;9.282;2023-04-01T02:20:07;93532.81;;;6.65;96.58
9855;BME280;4966;48.112;9.282;2023-04-01T02:22:38;93536.78;;;6.55;97.20
9855;BME280;4966;48.112;9.282;2023-04-01T02:25:12;93542.06;;;6.64;97.25
9855;BME280;4966;48.112;9.282;2023-04-01T02:27:38;93543.22;;;6.50;98.22
9855;BME280;4966;48.112;9.282;2023-04-01T02:30:04;93538.69;;;6.67;98.47
9855;BME280;4966;48.112;9.282;2023-04-01T02:32:31;93538.00;;;6.70;98.15
9855;BME280;4966;48.112;9.282;2023-04-01T02:34:58;93544.78;;;6.51;99.31
9855;BME280;4966;48.112;9.282;2023-04-01T02:37:25;93545.56;;;6.64;99.76
9855;BME280;4966;48.112;9.282;2023-04-01T02:39:50;93557.47;;;6.63;99.88
9855;BME280;4966;48.112;9.282;2023-04-01T02:42:15;93552.50;;;6.77;99.16
9855;BME280;4966;48.112;9.282;2023-04-01T02:44:41;93538.06;;;6.33;100.00
9855;BME280;4966;48.112;9.282;2023-04-01T02:47:06;93543.88;;;6.59;100.00
9855;BME280;4966;48.112;9.282;2023-04-01T02:49:31;93536.75;;;6.67;100.00
9855;BME280;4966;48.112;9.282;2023-04-01T02:51:57;93541.47;;;6.70;100.00
9855;BME280;4966;48.112;9.282;2023-04-01T02:54:22;93544.22;;;6.98;98.11
9855;BME280;4966;48.112;9.282;2023-04-01T02:56:48;93533.69;;;6.81;99.54
9855;BME280;4966;48.112;9.282;2023-04-01T02:59:13;93542.53;;;6.66;100.00
9855;BME280;4966;48.112;9.282;2023-04-01T03:01:38;93541.47;;;6.70;100.00
9855;BME280;4966;48.112;9.282;2023-04-01T03:04:04;93546.06;;;6.82;100.00
9855;BME280;4966;48.112;9.282;2023-04-01T03:06:30;93547.69;;;6.71;100.00
9855;BME280;4966;48.112;9.282;2023-04-01T03:08:55;93542.72;;;6.73;100.00
9855;BME280;4966;48.112;9.282;2023-04-01T03:11:20;93539.03;;;6.53;100.00
9855;BME280;4966;48.112;9.282;2023-04-01T03:13:46;93532.47;;;6.78;100.00
9855;BME280;4966;48.112;9.282;2023-04-01T03:16:11;93524.44;;;6.82;100.00
9855;BME280;4966;48.112;9.282;2023-04-01T03:18:37;93528.53;;;6.76;100.00
9855;BME280;4966;48.112;9.282;2023-04-01T03:21:16;93530.72;;;6.46;100.00
9855;BME280;4966;48.112;9.282;2023-04-01T03:23:43;93534.69;;;6.24;100.00
9855;BME280;4966;48.112;9.282;2023-04-01T03:26:08;93534.13;;;6.30;100.00
9855;BME280;4966;48.112;9.282;2023-04-01T03:28:34;93527.13;;;6.29;100.00
9855;BME280;4966;48.112;9.282;2023-04-01T03:30:59;93536.44;;;6.56;99.37
9855;BME280;4966;48.112;9.282;2023-04-01T03:33:25;93533.97;;;6.64;98.24
9855;BME280;4966;48.112;9.282;2023-04-01T03:35:50;93536.88;;;6.71;97.38
9855;BME280;4966;48.112;9.282;2023-04-01T03:38:17;93541.00;;;6.15;100.00
9855;BME280;4966;48.112;9.282;2023-04-01T03:40:44;93546.59;;;6.47;99.26
9855;BME280;4966;48.112;9.282;2023-04-01T03:43:09;93544.78;;;6.51;99.12
9855;BME280;4966;48.112;9.282;2023-04-01T03:45:36;93541.63;;;6.49;98.95
9855;BME280;4966;48.112;9.282;2023-04-01T03:48:08;93539.81;;;6.66;98.21
9855;BME280;4966;48.112;9.282;2023-04-01T03:50:34;93530.91;;;6.65;98.25
9855;BME280;4966;48.112;9.282;2023-04-01T03:53:00;93538.31;;;6.80;97.26
9855;BME280;4966;48.112;9.282;2023-04-01T03:55:25;93541.63;;;6.49;98.77
9855;BME280;4966;48.112;9.282;2023-04-01T03:57:51;93543.19;;;6.63;99.21
9855;BME280;4966;48.112;9.282;2023-04-01T04:00:16;93542.03;;;6.76;98.14
9855;BME280;4966;48.112;9.282;2023-04-01T04:02:42;93539.78;;;6.78;98.15
9855;BME280;4966;48.112;9.282;2023-04-01T04:05:07;93548.25;;;6.64;99.15
9855;BME280;4966;48.112;9.282;2023-04-01T04:07:34;93529.69;;;6.50;100.00
9855;BME280;4966;48.112;9.282;2023-04-01T04:10:00;93524.41;;;6.29;100.00
9855;BME280;4966;48.112;9.282;2023-04-01T04:12:25;93524.72;;;6.65;99.37
9855;BME280;4966;48.112;9.282;2023-04-01T04:14:51;93531.84;;;6.45;100.00
9855;BME280;4966;48.112;9.282;2023-04-01T04:17:16;93526.88;;;6.59;99.81
9855;BME280;4966;48.112;9.282;2023-04-01T04:19:42;93536.75;;;6.67;100.00
9855;BME280;4966;48.112;9.282;2023-04-01T04:22:07;93531.22;;;6.76;99.64
9855;BME280;4966;48.112;9.282;2023-04-01T04:24:36;93540.53;;;6.91;98.69
9855;BME280;4966;48.112;9.282;2023-04-01T04:27:02;93536.72;;;6.79;99.05
9855;BME280;4966;48.112;9.282;2023-04-01T04:29:28;93536.34;;;6.93;98.13
9855;BME280;4966;48.112;9.282;2023-04-01T04:31:53;93537.28;;;6.85;98.99
9855;BME280;4966;48.112;9.282;2023-04-01T04:34:18;93534.84;;;6.80;99.46
9855;BME280;4966;48.112;9.282;2023-04-01T04:36:44;93535.63;;;6.80;99.53
9855;BME280;4966;48.112;9.282;2023-04-01T04:39:10;93537.22;;;6.57;100.00
9855;BME280;4966;48.112;9.282;2023-04-01T04:41:37;93539.31;;;6.88;98.78
9855;BME280;4966;48.112;9.282;2023-04-01T04:44:03;93533.94;;;6.76;99.35
9855;BME280;4966;48.112;9.282;2023-04-01T04:46:29;93535.63;;;7.09;97.24
9855;BME280;4966;48.112;9.282;2023-04-01T04:48:54;93538.25;;;7.05;97.32
9855;BME280;4966;48.112;9.282;2023-04-01T04:51:20;93535.41;;;7.01;97.78
9855;BME280;4966;48.112;9.282;2023-04-01T04:53:47;93546.16;;;6.98;97.73
9855;BME280;4966;48.112;9.282;2023-04-01T04:56:13;93543.34;;;6.94;98.28
9855;BME280;4966;48.112;9.282;2023-04-01T04:58:39;93530.66;;;7.11;97.68
9855;BME280;4966;48.112;9.282;2023-04-01T05:01:13;93534.97;;;7.12;97.79
9855;BME280;4966;48.112;9.282;2023-04-01T05:03:38;93528.59;;;6.92;98.45
9855;BME280;4966;48.112;9.282;2023-04-01T05:06:05;93539.25;;;7.00;98.69
9855;BME280;4966;48.112;9.282;2023-04-01T05:08:31;93530.41;;;7.16;97.54
9855;BME280;4966;48.112;9.282;2023-04-01T05:10:57;93527.84;;;6.79;100.00
9855;BME280;4966;48.112;9.282;2023-04-01T05:13:23;93527.59;;;6.84;100.00
9855;BME280;4966;48.112;9.282;2023-04-01T05:15:48;93539.59;;;6.99;99.62
9855;BME280;4966;48.112;9.282;2023-04-01T05:18:13;93536.22;;;6.62;100.00
9855;BME280;4966;48.112;9.282;2023-04-01T05:20:45;93534.13;;;6.83;100.00
9855;BME280;4966;48.112;9.282;2023-04-01T05:23:10;93542.31;;;6.99;99.75
9855;BME280;4966;48.112;9.282;2023-04-01T05:25:37;93544.38;;;6.77;100.00
9855;BME280;4966;48.112;9.282;2023-04-01T05:28:03;93528.66;;;6.67;100.00
9855;BME280;4966;48.112;9.282;2023-04-01T05:30:28;93533.91;;;6.88;99.64
9855;BME280;4966;48.112;9.282;2023-04-01T05:32:54;93536.75;;;7.08;98.00
9855;BME280;4966;48.112;9.282;2023-04-01T05:35:20;93544.09;;;6.67;99.85
9855;BME280;4966;48.112;9.282;2023-04-01T05:37:45;93537.09;;;6.78;99.48
9855;BME280;4966;48.112;9.282;2023-04-01T05:40:10;93534.41;;;6.53;99.51
9855;BME280;4966;48.112;9.282;2023-04-01T05:42:36;93544.47;;;6.93;97.96
9855;BME280;4966;48.112;9.282;2023-04-01T05:45:01;93538.78;;;6.58;98.45
9855;BME280;4966;48.112;9.282;2023-04-01T05:47:27;93548.47;;;6.71;98.18
9855;BME280;4966;48.112;9.282;2023-04-01T05:49:52;93537.59;;;6.96;97.36
9855;BME280;4966;48.112;9.282;2023-04-01T05:52:17;93534.84;;;6.80;97.28
9855;BME280;4966;48.112;9.282;2023-04-01T05:54:43;93542.16;;;7.08;95.04
9855;BME280;4966;48.112;9.282;2023-04-01T05:57:08;93543.28;;;7.19;94.89
9855;BME280;4966;48.112;9.282;2023-04-01T05:59:33;93538.88;;;6.74;95.05
9855;BME280;4966;48.112;9.282;2023-04-01T06:02:00;93543.97;;;7.03;95.56
9855;BME280;4966;48.112;9.282;2023-04-01T06:04:28;93535.28;;;7.10;95.12
9855;BME280;4966;48.112;9.282;2023-04-01T06:06:57;93534.06;;;7.08;95.51
9855;BME280;4966;48.112;9.282;2023-04-01T06:09:29;93518.72;;;7.12;94.69
9855;BME280;4966;48.112;9.282;2023-04-01T06:14:38;93523.31;;;7.39;94.30
9855;BME280;4966;48.112;9.282;2023-04-01T06:20:17;93526.84;;;7.12;94.89
9855;BME280;4966;48.112;9.282;2023-04-01T06:25:49;93528.09;;;7.30;93.37
9855;BME280;4966;48.112;9.282;2023-04-01T06:34:08;93536.50;;;7.13;95.41
9855;BME280;4966;48.112;9.282;2023-04-01T06:52:54;93523.50;;;7.46;94.40
9855;BME280;4966;48.112;9.282;2023-04-01T06:55:34;93526.28;;;7.34;93.90
9855;BME280;4966;48.112;9.282;2023-04-01T06:58:04;93523.50;;;7.46;93.28
9855;BME280;4966;48.112;9.282;2023-04-01T07:00:36;93523.25;;;7.52;92.84
9855;BME280;4966;48.112;9.282;2023-04-01T07:03:10;93527.88;;;7.35;94.59
9855;BME280;4966;48.112;9.282;2023-04-01T07:05:42;93520.97;;;7.38;94.59
9855;BME280;4966;48.112;9.282;2023-04-01T07:08:14;93527.97;;;7.39;94.30
9855;BME280;4966;48.112;9.282;2023-04-01T07:10:54;93524.56;;;7.42;93.85
9855;BME280;4966;48.112;9.282;2023-04-01T07:21:48;93527.25;;;7.42;92.93
9855;BME280;4966;48.112;9.282;2023-04-01T07:24:26;93528.72;;;7.67;92.57
9855;BME280;4966;48.112;9.282;2023-04-01T07:26:54;93538.28;;;7.49;93.62
9855;BME280;4966;48.112;9.282;2023-04-01T07:29:20;93532.91;;;7.09;94.35
9855;BME280;4966;48.112;9.282;2023-04-01T07:37:21;93542.31;;;7.27;93.57
9855;BME280;4966;48.112;9.282;2023-04-01T07:50:28;93556.94;;;7.38;94.98
9855;BME280;4966;48.112;9.282;2023-04-01T07:56:10;93551.31;;;7.31;93.54
9855;BME280;4966;48.112;9.282;2023-04-01T07:58:54;93557.59;;;7.63;94.88
9855;BME280;4966;48.112;9.282;2023-04-01T08:01:28;93551.72;;;7.45;93.43
9855;BME280;4966;48.112;9.282;2023-04-01T08:06:42;93549.94;;;7.37;92.85
9855;BME280;4966;48.112;9.282;2023-04-01T08:15:22;93544.50;;;7.65;94.01
9855;BME280;4966;48.112;9.282;2023-04-01T08:18:44;93552.00;;;7.56;95.38
9855;BME280;4966;48.112;9.282;2023-04-01T08:20:57;93552.28;;;7.11;94.67
9855;BME280;4966;48.112;9.282;2023-04-01T08:23:30;93555.53;;;7.73;94.23
9855;BME280;4966;48.112;9.282;2023-04-01T08:26:10;93552.69;;;7.53;93.34
9855;BME280;4966;48.112;9.282;2023-04-01T08:28:45;93561.66;;;7.41;93.81
9855;BME280;4966;48.112;9.282;2023-04-01T08:33:56;93560.81;;;7.25;92.31
9855;BME280;4966;48.112;9.282;2023-04-01T08:36:29;93554.38;;;7.30;92.49
9855;BME280;4966;48.112;9.282;2023-04-01T08:39:32;93566.88;;;7.34;91.76
9855;BME280;4966;48.112;9.282;2023-04-01T08:42:16;93558.03;;;7.21;94.02
9855;BME280;4966;48.112;9.282;2023-04-01T08:45:16;93563.56;;;7.13;94.60
9855;BME280;4966;48.112;9.282;2023-04-01T08:56:18;93549.47;;;7.63;91.79
9855;BME280;4966;48.112;9.282;2023-04-01T09:04:45;93557.50;;;7.60;90.64
9855;BME280;4966;48.112;9.282;2023-04-01T09:16:21;93556.09;;;7.22;93.29
9855;BME280;4966;48.112;9.282;2023-04-01T09:19:00;93568.34;;;7.32;92.86
9855;BME280;4966;48.112;9.282;2023-04-01T09:35:49;93550.25;;;7.20;92.31
9855;BME280;4966;48.112;9.282;2023-04-01T09:38:23;93554.28;;;7.26;92.00
9855;BME280;4966;48.112;9.282;2023-04-01T09:43:50;93554.47;;;7.33;94.38
9855;BME280;4966;48.112;9.282;2023-04-01T09:49:32;93568.53;;;7.39;94.85
9855;BME280;4966;48.112;9.282;2023-04-01T09:52:26;93566.41;;;7.60;95.16
9855;BME280;4966;48.112;9.282;2023-04-01T10:08:23;93582.88;;;7.83;95.56
9855;BME280;4966;48.112;9.282;2023-04-01T10:11:20;93576.75;;;7.86;96.69
9855;BME280;4966;48.112;9.282;2023-04-01T10:14:01;93584.97;;;7.74;95.29
9855;BME280;4966;48.112;9.282;2023-04-01T10:22:48;93579.31;;;7.51;96.20
9855;BME280;4966;48.112;9.282;2023-04-01T10:38:54;93587.16;;;7.56;96.57
9855;BME280;4966;48.112;9.282;2023-04-01T10:50:01;93584.25;;;7.61;95.56
9855;BME280;4966;48.112;9.282;2023-04-01T10:55:48;93586.25;;;7.36;98.13
9855;BME280;4966;48.112;9.282;2023-04-01T11:21:28;93584.00;;;7.66;97.54
9855;BME280;4966;48.112;9.282;2023-04-01T11:24:10;93585.31;;;7.44;98.16
9855;BME280;4966;48.112;9.282;2023-04-01T11:38:26;93580.72;;;8.05;96.55
9855;BME280;4966;48.112;9.282;2023-04-01T11:44:09;93586.94;;;8.21;95.74
9855;BME280;4966;48.112;9.282;2023-04-01T11:47:22;93589.75;;;8.41;94.44
9855;BME280;4966;48.112;9.282;2023-04-01T11:49:44;93581.25;;;8.26;96.82
9855;BME280;4966;48.112;9.282;2023-04-01T11:52:37;93603.31;;;8.41;96.06
9855;BME280;4966;48.112;9.282;2023-04-01T11:57:58;93593.38;;;8.32;96.79
9855;BME280;4966;48.112;9.282;2023-04-01T12:03:38;93584.47;;;8.64;94.70
9855;BME280;4966;48.112;9.282;2023-04-01T12:09:24;93590.56;;;9.12;91.28
9855;BME280;4966;48.112;9.282;2023-04-01T12:14:47;93587.97;;;9.35;90.26
9855;BME280;4966;48.112;9.282;2023-04-01T12:17:34;93592.22;;;9.16;87.91
9855;BME280;4966;48.112;9.282;2023-04-01T12:43:01;93602.25;;;9.51;82.14
9855;BME280;4966;48.112;9.282;2023-04-01T12:45:59;93605.22;;;10.05;85.62
9855;BME280;4966;48.112;9.282;2023-04-01T13:02:44;93611.75;;;9.61;82.30
9855;BME280;4966;48.112;9.282;2023-04-01T13:05:35;93616.41;;;9.61;83.64
9855;BME280;4966;48.112;9.282;2023-04-01T13:16:17;93609.09;;;9.65;80.56
9855;BME280;4966;48.112;9.282;2023-04-01T13:27:45;93618.31;;;9.99;73.38
9855;BME280;4966;48.112;9.282;2023-04-01T13:30:27;93609.53;;;10.29;74.19
9855;BME280;4966;48.112;9.282;2023-04-01T13:33:16;93604.13;;;10.52;72.89
9855;BME280;4966;48.112;9.282;2023-04-01T13:38:39;93602.78;;;9.99;72.69
9855;BME280;4966;48.112;9.282;2023-04-01T13:41:43;93595.75;;;10.18;73.15
9855;BME280;4966;48.112;9.282;2023-04-01T13:44:12;93593.31;;;10.32;72.10
9855;BME280;4966;48.112;9.282;2023-04-01T13:49:34;93591.28;;;10.29;70.87
9855;BME280;4966;48.112;9.282;2023-04-01T14:00:38;93620.69;;;10.23;68.85
9855;BME280;4966;48.112;9.282;2023-04-01T14:03:27;93624.50;;;10.65;68.48
9855;BME280;4966;48.112;9.282;2023-04-01T14:27:41;93625.38;;;10.04;68.95
9855;BME280;4966;48.112;9.282;2023-04-01T14:32:51;93624.84;;;10.37;68.77
9855;BME280;4966;48.112;9.282;2023-04-01T14:35:35;93631.13;;;10.21;70.49
9855;BME280;4966;48.112;9.282;2023-04-01T14:38:16;93631.53;;;10.43;69.69
9855;BME280;4966;48.112;9.282;2023-04-01T14:49:14;93623.34;;;10.20;73.68
9855;BME280;4966;48.112;9.282;2023-04-01T14:51:41;93623.75;;;10.22;74.15
9855;BME280;4966;48.112;9.282;2023-04-01T14:54:30;93634.84;;;10.56;72.68
9855;BME280;4966;48.112;9.282;2023-04-01T14:59:30;93635.63;;;10.33;73.99
9855;BME280;4966;48.112;9.282;2023-04-01T15:02:01;93625.63;;;10.37;72.93
9855;BME280;4966;48.112;9.282;2023-04-01T15:08:36;93635.66;;;10.14;72.25
9855;BME280;4966;48.112;9.282;2023-04-01T15:10:53;93626.47;;;10.22;73.04
9855;BME280;4966;48.112;9.282;2023-04-01T15:29:45;93638.03;;;9.96;76.94
9855;BME280;4966;48.112;9.282;2023-04-01T15:32:19;93647.69;;;10.13;76.26
9855;BME280;4966;48.112;9.282;2023-04-01T15:40:20;93660.91;;;9.95;78.19
9855;BME280;4966;48.112;9.282;2023-04-01T15:53:44;93662.59;;;10.03;78.88
9855;BME280;4966;48.112;9.282;2023-04-01T16:04:47;93665.06;;;10.08;78.84
9855;BME280;4966;48.112;9.282;2023-04-01T16:07:22;93661.41;;;9.81;79.77
9855;BME280;4966;48.112;9.282;2023-04-01T16:10:06;93673.06;;;10.20;79.01
9855;BME280;4966;48.112;9.282;2023-04-01T16:25:39;93671.97;;;10.25;78.26
9855;BME280;4966;48.112;9.282;2023-04-01T16:28:32;93675.69;;;10.17;79.24
9855;BME280;4966;48.112;9.282;2023-04-01T16:31:09;93681.72;;;9.87;79.20
9855;BME280;4966;48.112;9.282;2023-04-01T16:33:44;93678.13;;;9.83;79.75
9855;BME280;4966;48.112;9.282;2023-04-01T16:39:08;93679.19;;;9.98;76.09
9855;BME280;4966;48.112;9.282;2023-04-01T16:41:37;93677.78;;;9.85;75.99
9855;BME280;4966;48.112;9.282;2023-04-01T16:44:26;93683.34;;;9.53;77.35
9855;BME280;4966;48.112;9.282;2023-04-01T16:46:54;93681.34;;;9.69;77.55
9855;BME280;4966;48.112;9.282;2023-04-01T16:49:32;93687.00;;;9.61;79.27
9855;BME280;4966;48.112;9.282;2023-04-01T16:54:55;93674.25;;;9.45;82.17
9855;BME280;4966;48.112;9.282;2023-04-01T16:57:28;93682.81;;;9.12;83.87
9855;BME280;4966;48.112;9.282;2023-04-01T17:00:10;93684.16;;;9.02;84.39
9855;BME280;4966;48.112;9.282;2023-04-01T17:02:57;93696.03;;;9.13;83.40
9855;BME280;4966;48.112;9.282;2023-04-01T17:05:40;93705.75;;;9.50;81.79
9855;BME280;4966;48.112;9.282;2023-04-01T17:10:46;93700.53;;;9.41;80.96
9855;BME280;4966;48.112;9.282;2023-04-01T17:16:10;93703.34;;;9.29;79.89
9855;BME280;4966;48.112;9.282;2023-04-01T17:35:34;93720.22;;;8.87;79.60
9855;BME280;4966;48.112;9.282;2023-04-01T17:40:44;93724.31;;;8.97;80.35
9855;BME280;4966;48.112;9.282;2023-04-01T17:43:26;93725.38;;;9.08;79.88
9855;BME280;4966;48.112;9.282;2023-04-01T17:45:59;93729.22;;;8.75;81.28
9855;BME280;4966;48.112;9.282;2023-04-01T17:48:43;93729.63;;;8.61;81.96
9855;BME280;4966;48.112;9.282;2023-04-01T17:56:32;93735.50;;;8.63;81.97
9855;BME280;4966;48.112;9.282;2023-04-01T17:59:26;93731.22;;;8.78;81.44
9855;BME280;4966;48.112;9.282;2023-04-01T18:02:20;93735.66;;;8.55;82.73
9855;BME280;4966;48.112;9.282;2023-04-01T18:08:16;93730.34;;;8.58;82.76
9855;BME280;4966;48.112;9.282;2023-04-01T18:10:55;93736.72;;;8.98;81.06
9855;BME280;4966;48.112;9.282;2023-04-01T18:13:48;93746.69;;;8.46;83.16
9855;BME280;4966;48.112;9.282;2023-04-01T18:19:25;93743.91;;;8.58;82.31
9855;BME280;4966;48.112;9.282;2023-04-01T18:22:19;93754.47;;;8.63;82.13
9855;BME280;4966;48.112;9.282;2023-04-01T18:24:56;93754.91;;;8.49;82.29
9855;BME280;4966;48.112;9.282;2023-04-01T18:32:37;93752.09;;;8.46;82.65
9855;BME280;4966;48.112;9.282;2023-04-01T18:37:50;93764.28;;;8.68;81.59
9855;BME280;4966;48.112;9.282;2023-04-01T18:45:58;93767.94;;;8.31;84.21
9855;BME280;4966;48.112;9.282;2023-04-01T18:48:49;93767.50;;;8.58;82.88
9855;BME280;4966;48.112;9.282;2023-04-01T18:51:47;93768.88;;;8.51;82.69
9855;BME280;4966;48.112;9.282;2023-04-01T18:56:41;93768.44;;;8.49;82.78
9855;BME280;4966;48.112;9.282;2023-04-01T18:59:27;93771.09;;;8.34;83.62
9855;BME280;4966;48.112;9.282;2023-04-01T19:04:42;93785.34;;;8.59;81.80
9855;BME280;4966;48.112;9.282;2023-04-01T19:10:23;93783.81;;;8.17;84.17
9855;BME280;4966;48.112;9.282;2023-04-01T19:15:33;93796.84;;;8.27;83.31
9855;BME280;4966;48.112;9.282;2023-04-01T19:21:26;93798.06;;;8.02;84.50
9855;BME280;4966;48.112;9.282;2023-04-01T19:24:15;93798.75;;;7.99;84.45
9855;BME280;4966;48.112;9.282;2023-04-01T19:35:42;93801.50;;;7.86;85.24
9855;BME280;4966;48.112;9.282;2023-04-01T19:38:12;93809.72;;;7.90;84.96
9855;BME280;4966;48.112;9.282;2023-04-01T19:43:59;93815.03;;;7.86;85.00
9855;BME280;4966;48.112;9.282;2023-04-01T19:46:41;93814.59;;;7.72;85.62
9855;BME280;4966;48.112;9.282;2023-04-01T19:49:48;93816.41;;;7.68;86.20
9855;BME280;4966;48.112;9.282;2023-04-01T19:52:33;93817.06;;;7.89;85.02
9855;BME280;4966;48.112;9.282;2023-04-01T19:57:49;93811.44;;;7.70;85.70
9855;BME280;4966;48.112;9.282;2023-04-01T20:06:37;93830.53;;;7.74;85.99
9855;BME280;4966;48.112;9.282;2023-04-01T20:12:05;93826.69;;;7.62;86.66
9855;BME280;4966;48.112;9.282;2023-04-01T20:14:47;93842.03;;;7.34;87.64
9855;BME280;4966;48.112;9.282;2023-04-01T20:17:26;93838.88;;;7.56;86.37
9855;BME280;4966;48.112;9.282;2023-04-01T20:19:59;93840.09;;;7.22;88.87
9855;BME280;4966;48.112;9.282;2023-04-01T20:25:46;93843.81;;;7.42;87.91
9855;BME280;4966;48.112;9.282;2023-04-01T20:33:57;93847.66;;;7.53;86.37
9855;BME280;4966;48.112;9.282;2023-04-01T20:36:42;93856.25;;;7.31;88.27
9855;BME280;4966;48.112;9.282;2023-04-01T20:39:40;93849.81;;;7.35;87.55
9855;BME280;4966;48.112;9.282;2023-04-01T20:42:29;93849.59;;;7.28;88.07
9855;BME280;4966;48.112;9.282;2023-04-01T20:45:17;93862.44;;;7.31;87.73
9855;BME280;4966;48.112;9.282;2023-04-01T20:50:57;93857.53;;;7.00;89.20
9855;BME280;4966;48.112;9.282;2023-04-01T20:53:41;93849.59;;;7.28;87.75
9855;BME280;4966;48.112;9.282;2023-04-01T21:01:38;93848.78;;;7.28;86.49
9855;BME280;4966;48.112;9.282;2023-04-01T21:07:10;93859.56;;;7.03;87.41
9855;BME280;4966;48.112;9.282;2023-04-01T21:12:47;93867.38;;;7.17;86.25
9855;BME280;4966;48.112;9.282;2023-04-01T21:32:21;93891.19;;;6.57;89.41
9855;BME280;4966;48.112;9.282;2023-04-01T21:34:57;93891.28;;;6.81;87.85
9855;BME280;4966;48.112;9.282;2023-04-01T21:43:04;93890.22;;;6.62;88.62
9855;BME280;4966;48.112;9.282;2023-04-01T21:46:05;93899.16;;;6.53;89.62
9855;BME280;4966;48.112;9.282;2023-04-01T22:08:39;93919.41;;;6.47;87.84
9855;BME280;4966;48.112;9.282;2023-04-01T22:14:42;93926.00;;;6.37;87.96
9855;BME280;4966;48.112;9.282;2023-04-01T22:19:56;93925.69;;;6.18;89.43
9855;BME280;4966;48.112;9.282;2023-04-01T22:22:55;93933.69;;;6.06;90.93
9855;BME280;4966;48.112;9.282;2023-04-01T22:25:46;93918.69;;;6.17;89.20
9855;BME280;4966;48.112;9.282;2023-04-01T22:28:26;93925.69;;;6.18;89.39
9855;BME280;4966;48.112;9.282;2023-04-01T22:30:59;93936.25;;;5.93;92.35
9855;BME280;4966;48.112;9.282;2023-04-01T22:33:44;93943.91;;;5.91;94.41
9855;BME280;4966;48.112;9.282;2023-04-01T22:39:01;93945.69;;;6.17;91.36
9855;BME280;4966;48.112;9.282;2023-04-01T22:44:58;93952.25;;;6.37;91.08
9855;BME280;4966;48.112;9.282;2023-04-01T22:49:46;93959.47;;;6.45;91.81
9855;BME280;4966;48.112;9.282;2023-04-01T22:52:31;93953.47;;;6.60;91.94
9855;BME280;4966;48.112;9.282;2023-04-01T22:55:13;93951.69;;;6.65;91.87
9855;BME280;4966;48.112;9.282;2023-04-01T22:57:52;93963.53;;;6.72;91.13
9855;BME280;4966;48.112;9.282;2023-04-01T23:05:59;93971.47;;;6.56;92.46
9855;BME280;4966;48.112;9.282;2023-04-01T23:08:40;93972.22;;;6.66;91.73
9855;BME280;4966;48.112;9.282;2023-04-01T23:11:10;93975.91;;;6.61;91.81
9855;BME280;4966;48.112;9.282;2023-04-01T23:13:42;93982.50;;;6.51;91.38
9855;BME280;4966;48.112;9.282;2023-04-01T23:16:09;93978.06;;;6.68;91.26
9855;BME280;4966;48.112;9.282;2023-04-01T23:18:55;93981.75;;;6.84;90.33
9855;BME280;4966;48.112;9.282;2023-04-01T23:21:34;93981.88;;;6.88;89.49
9855;BME280;4966;48.112;9.282;2023-04-01T23:24:11;93985.22;;;7.06;89.17
9855;BME280;4966;48.112;9.282;2023-04-01T23:26:56;93989.47;;;6.73;90.11
9855;BME280;4966;48.112;9.282;2023-04-01T23:29:24;93978.50;;;6.91;89.69
9855;BME280;4966;48.112;9.282;2023-04-01T23:32:01;93997.06;;;6.80;89.92
9855;BME280;4966;48.112;9.282;2023-04-01T23:34:33;93991.44;;;6.85;89.62